Terminal Aerodrome Forecast
Issued by NWS

Home | Current Version | Previous Version | Text Only | Print | Product List | Glossary On
Versions: 1 2 3 4 5 6 7 8 9 10 11 12 13 14 15 16 17 18 19 20 21 22 23 24 25 26 27 28 29 30
000
FTUS43 KFGF 211132
TAFDVL
TAF
KDVL 211132Z 2112/2212 VRB05KT P6SM SCT130
     FM212000 25006KT P6SM BKN130
     FM220100 VRB05KT P6SM -RASN OVC040
     FM220300 VRB04KT P6SM -SN OVC015
     FM220600 VRB05KT P6SM OVC008=

USA.gov is the U.S. government's official web portal to all federal, state and local government web resources and services.